KHWV

Brookhaven Airport

Shirley, New York, USA
METAR KHWV 182156Z AUTO 21016G24KT 10SM CLR 24/20 A2985 RMK AO2 SLP108 T02440200 TSNO
Observed Flight Rules
Jun-18 @ 21:56 UTC (41 minutes ago) Visual Flight Rules
Wind Visibility Clouds
210° at 16 knots
 Gusting to 24 knots
10 miles
  • Clear skies
Temperatures Readings
Current 24°C / 75°F
Dewpoint 20°C / 68°F
Humidity 78%
Altimeter 29.85" Hg
Pressure 1010.8 hPa
Elevation 21
METAR KHWV 182156Z AUTO 21016G24KT 10SM CLR 24/20 A2985 RMK AO2 SLP108 T02440200 TSNO
Observed Flight Rules
Jun-18 @ 21:56 UTC
(41 minutes ago)
VFR
Wind Visibility
210° at 16 knots
 Gusting to 24 knots
10 miles
Clouds
  • Clear skies
Temperature Dewpoint
24°C / 75°F 20°C / 68°F
Humidity Altimeter Pressure
78% 29.85" Hg 1010.8 hPa